Time;durP1;ratioP1;P1;durP2;ratioP2;P2;SDS_P1;SDS_P2;PMS_P1;PMS_P2;Temp;Humidity;BMP_temperature;BMP_pressure;BME280_temperature;BME280_humidity;BME280_pressure;Samples;Min_cycle;Max_cycle;Signal;HPM_P1;HPM_P2
2024/04/04 00:01:09;;;;;;;6.97;5.13;;;11.20;1.00;;;;;;5103464;27;20477;-72
2024/04/04 00:03:35;;;;;;;3.33;3.03;;;11.30;1.00;;;;;;5104173;27;21019;-72
2024/04/04 00:06:02;;;;;;;3.47;3.00;;;11.20;1.00;;;;;;5101343;27;20465;-74
2024/04/04 00:08:28;;;;;;;3.20;2.90;;;11.20;1.00;;;;;;5104760;27;20485;-73
2024/04/04 00:10:57;;;;;;;3.07;2.87;;;11.10;1.00;;;;;;5104702;27;20562;-73
2024/04/04 00:13:23;;;;;;;4.00;2.97;;;11.20;1.00;;;;;;5095168;27;20465;-72
2024/04/04 00:15:50;;;;;;;4.00;2.93;;;11.30;1.00;;;;;;5104090;27;20473;-74
2024/04/04 00:18:19;;;;;;;2.67;2.47;;;11.30;1.00;;;;;;5099966;27;20445;-72
2024/04/04 00:20:45;;;;;;;3.97;3.13;;;11.30;1.00;;;;;;5088870;27;21334;-71
2024/04/04 00:23:11;;;;;;;2.70;2.50;;;11.30;1.00;;;;;;5094266;27;20532;-72
2024/04/04 00:25:38;;;;;;;4.07;2.33;;;11.40;1.00;;;;;;5087499;27;20475;-74
2024/04/04 00:28:05;;;;;;;3.07;1.93;;;11.30;1.00;;;;;;5083111;28;20513;-74
2024/04/04 00:30:32;;;;;;;2.80;2.60;;;11.30;1.00;;;;;;5081592;28;20466;-71
2024/04/04 00:32:57;;;;;;;2.83;2.63;;;11.20;1.00;;;;;;5083942;27;22801;-73
2024/04/04 00:35:26;;;;;;;3.03;2.50;;;11.20;1.00;;;;;;5104827;27;20428;-73
2024/04/04 00:37:52;;;;;;;2.27;2.07;;;11.20;1.00;;;;;;5105559;27;21221;-73
2024/04/04 00:40:19;;;;;;;3.30;2.30;;;11.20;1.00;;;;;;5101338;27;20542;-73
2024/04/04 00:42:49;;;;;;;2.87;2.67;;;11.20;1.00;;;;;;5106503;27;20912;-74
2024/04/04 00:45:16;;;;;;;2.77;2.57;;;11.20;1.00;;;;;;5083787;27;20489;-72
2024/04/04 00:47:44;;;;;;;2.50;2.13;;;11.30;1.00;;;;;;5083540;28;20455;-72
2024/04/04 00:50:12;;;;;;;2.93;2.63;;;11.30;1.00;;;;;;5087962;27;21304;-72
2024/04/04 00:52:40;;;;;;;3.17;2.90;;;11.40;1.00;;;;;;5095706;27;20475;-73
2024/04/04 00:55:08;;;;;;;3.50;2.17;;;11.30;1.00;;;;;;5077711;27;20483;-73
2024/04/04 00:57:34;;;;;;;2.90;2.20;;;11.30;1.00;;;;;;5080323;28;20958;-72
2024/04/04 01:00:03;;;;;;;2.63;2.43;;;11.40;1.00;;;;;;5081677;28;20547;-70
2024/04/04 01:02:29;;;;;;;3.50;2.50;;;11.40;1.00;;;;;;5082451;28;20962;-72
2024/04/04 01:04:59;;;;;;;2.20;2.00;;;11.40;1.00;;;;;;5099844;27;20482;-72
2024/04/04 01:07:27;;;;;;;2.40;2.13;;;11.40;1.00;;;;;;5102951;27;20505;-72
2024/04/04 01:09:55;;;;;;;1.70;1.60;;;11.50;1.00;;;;;;5102987;27;20562;-73
2024/04/04 01:12:21;;;;;;;2.23;1.73;;;11.50;1.00;;;;;;5086553;27;20559;-72
2024/04/04 01:14:48;;;;;;;3.70;2.37;;;11.50;1.00;;;;;;5083268;28;20542;-72
2024/04/04 01:17:14;;;;;;;2.00;1.80;;;11.60;1.00;;;;;;5089990;27;20454;-73
2024/04/04 01:19:41;;;;;;;6.60;1.70;;;11.50;1.00;;;;;;5099658;27;20879;-73
2024/04/04 01:22:07;;;;;;;1.90;1.67;;;11.50;1.00;;;;;;5093897;27;20455;-72
2024/04/04 01:24:35;;;;;;;1.97;1.77;;;11.30;1.00;;;;;;5090068;27;20471;-74
2024/04/04 01:27:02;;;;;;;2.47;2.27;;;11.20;1.00;;;;;;5083633;27;20461;-73
2024/04/04 01:29:30;;;;;;;3.47;2.07;;;11.00;1.00;;;;;;5106321;27;20504;-72
2024/04/04 01:31:56;;;;;;;2.73;2.10;;;10.90;1.00;;;;;;5105382;27;20488;-72
2024/04/04 01:34:23;;;;;;;2.97;2.67;;;10.90;1.00;;;;;;5105094;27;20486;-71
2024/04/04 01:36:49;;;;;;;3.40;2.20;;;10.80;1.00;;;;;;5095085;27;20509;-74
2024/04/04 01:39:16;;;;;;;3.70;2.50;;;10.80;1.00;;;;;;5091737;27;20552;-72
2024/04/04 01:41:45;;;;;;;2.00;1.83;;;10.80;1.00;;;;;;5080667;27;20458;-73
2024/04/04 01:44:12;;;;;;;3.93;3.17;;;10.80;1.00;;;;;;5090205;27;20497;-73
2024/04/04 01:46:39;;;;;;;2.20;2.00;;;10.80;1.00;;;;;;5106197;27;20820;-71
2024/04/04 01:49:06;;;;;;;2.43;2.23;;;10.80;1.00;;;;;;5105467;27;21087;-72
2024/04/04 01:51:32;;;;;;;2.33;2.13;;;10.80;1.00;;;;;;5093298;27;20467;-72
2024/04/04 01:54:00;;;;;;;2.77;2.10;;;10.80;1.00;;;;;;5079111;28;20474;-73
2024/04/04 01:56:26;;;;;;;2.70;2.50;;;10.80;1.00;;;;;;5081846;28;20566;-72
2024/04/04 01:58:54;;;;;;;2.70;2.50;;;10.70;1.00;;;;;;5081911;27;20463;-71
2024/04/04 02:01:20;;;;;;;2.20;2.00;;;10.60;1.00;;;;;;5092257;27;20454;-72
2024/04/04 02:03:47;;;;;;;3.73;2.27;;;10.60;1.00;;;;;;5106870;27;21051;-72
2024/04/04 02:06:13;;;;;;;2.77;2.57;;;10.60;1.00;;;;;;5104808;27;20450;-70
2024/04/04 02:08:40;;;;;;;2.17;2.00;;;10.60;1.00;;;;;;5103927;27;20457;-73
2024/04/04 02:11:06;;;;;;;2.57;2.37;;;10.60;1.00;;;;;;5105995;27;20541;-73
2024/04/04 02:13:33;;;;;;;2.30;2.10;;;10.70;1.00;;;;;;5104721;27;20466;-73
2024/04/04 02:16:01;;;;;;;2.80;2.60;;;10.70;1.00;;;;;;5104207;27;20458;-73
2024/04/04 02:18:28;;;;;;;1.93;1.83;;;10.70;1.00;;;;;;5103421;27;20465;-72
2024/04/04 02:20:54;;;;;;;2.23;2.13;;;10.70;1.00;;;;;;5108806;27;20441;-71
2024/04/04 02:23:21;;;;;;;2.60;2.40;;;10.70;1.00;;;;;;5103985;27;20484;-73
2024/04/04 02:25:47;;;;;;;3.20;2.10;;;10.70;1.00;;;;;;5093894;27;20529;-74
2024/04/04 02:28:14;;;;;;;2.50;2.30;;;10.70;1.00;;;;;;5081554;28;20595;-72
2024/04/04 02:30:41;;;;;;;2.60;2.40;;;10.70;1.00;;;;;;5080483;28;20446;-71
2024/04/04 02:33:11;;;;;;;3.30;3.00;;;10.70;1.00;;;;;;5078869;28;20479;-72
2024/04/04 02:35:37;;;;;;;5.87;3.43;;;10.70;1.00;;;;;;5081423;27;20477;-72
2024/04/04 02:38:04;;;;;;;3.10;2.90;;;10.70;1.00;;;;;;5082543;28;20480;-74
2024/04/04 02:40:30;;;;;;;3.70;3.40;;;10.70;1.00;;;;;;5081883;28;21015;-75
2024/04/04 02:42:57;;;;;;;3.20;2.90;;;10.80;1.00;;;;;;5083210;28;20474;-72
2024/04/04 02:45:23;;;;;;;2.90;2.70;;;10.80;1.00;;;;;;5085483;27;20410;-74
2024/04/04 02:47:50;;;;;;;3.37;3.07;;;10.80;1.00;;;;;;5088501;27;20483;-71
2024/04/04 02:50:17;;;;;;;3.50;3.20;;;10.80;1.00;;;;;;5088487;27;20542;-72
2024/04/04 02:52:45;;;;;;;3.50;3.30;;;10.80;1.00;;;;;;5101944;27;20454;-73
2024/04/04 02:55:12;;;;;;;3.93;3.63;;;10.80;1.00;;;;;;5105134;27;20969;-73
2024/04/04 02:57:39;;;;;;;3.73;3.43;;;10.80;1.00;;;;;;5101852;27;20971;-73
2024/04/04 03:00:08;;;;;;;3.97;3.67;;;10.80;1.00;;;;;;5100529;27;20488;-72
2024/04/04 03:02:35;;;;;;;3.60;3.30;;;10.70;1.00;;;;;;5087027;27;20523;-73
2024/04/04 03:05:01;;;;;;;3.70;3.40;;;10.70;1.00;;;;;;5105126;27;21246;-72
2024/04/04 03:07:29;;;;;;;4.97;4.57;;;10.70;1.00;;;;;;5100237;27;20475;-73
2024/04/04 03:09:55;;;;;;;4.57;4.23;;;10.70;1.00;;;;;;5080449;27;20427;-73
2024/04/04 03:12:22;;;;;;;5.00;4.60;;;10.70;1.00;;;;;;5082894;28;20902;-73
2024/04/04 03:14:48;;;;;;;5.03;4.63;;;10.80;1.00;;;;;;5082570;27;20992;-72
2024/04/04 03:17:15;;;;;;;4.73;4.37;;;10.80;1.00;;;;;;5081643;27;20464;-72
2024/04/04 03:19:41;;;;;;;5.03;4.63;;;10.70;1.00;;;;;;5079823;28;20423;-73
2024/04/04 03:22:08;;;;;;;4.83;4.43;;;10.80;1.00;;;;;;5094109;27;20469;-73
2024/04/04 03:24:36;;;;;;;4.97;3.90;;;10.70;1.00;;;;;;5101382;27;20437;-73
2024/04/04 03:27:03;;;;;;;4.50;4.20;;;10.70;1.00;;;;;;5103679;27;20453;-74
2024/04/04 03:29:29;;;;;;;4.60;4.30;;;10.70;1.00;;;;;;5107839;27;20538;-73
2024/04/04 03:31:56;;;;;;;5.00;4.03;;;10.60;1.00;;;;;;5099570;27;21808;-74
2024/04/04 03:34:22;;;;;;;4.90;4.50;;;10.60;1.00;;;;;;5083849;27;21038;-72
2024/04/04 03:36:49;;;;;;;4.60;4.20;;;10.60;1.00;;;;;;5095370;27;22041;-72
2024/04/04 03:39:16;;;;;;;4.97;4.40;;;10.50;1.00;;;;;;5083786;27;20474;-72
2024/04/04 03:41:45;;;;;;;4.40;4.00;;;10.50;1.00;;;;;;5078916;28;20474;-73
2024/04/04 03:44:12;;;;;;;5.10;4.60;;;10.50;1.00;;;;;;5094509;27;20559;-72
2024/04/04 03:46:37;;;;;;;5.47;4.97;;;10.60;1.00;;;;;;5101609;27;20557;-72
2024/04/04 03:49:04;;;;;;;5.37;4.87;;;10.60;1.00;;;;;;5105181;27;20483;-73
2024/04/04 03:51:30;;;;;;;4.20;3.80;;;10.60;1.00;;;;;;5106482;27;20519;-73
2024/04/04 03:53:57;;;;;;;5.20;4.70;;;10.50;1.00;;;;;;5110237;27;21552;-72
2024/04/04 03:56:23;;;;;;;5.10;4.67;;;10.50;1.00;;;;;;5087623;27;20486;-72
2024/04/04 03:58:51;;;;;;;4.60;4.30;;;10.50;1.00;;;;;;5092361;27;20598;-72
2024/04/04 04:01:19;;;;;;;5.27;4.87;;;10.50;1.00;;;;;;5083247;28;20487;-73
2024/04/04 04:03:45;;;;;;;4.90;4.50;;;10.40;1.00;;;;;;5079600;28;20568;-77
2024/04/04 04:06:12;;;;;;;6.17;5.50;;;10.40;1.00;;;;;;5080031;28;20591;-75
2024/04/04 04:08:38;;;;;;;5.53;5.13;;;10.40;1.00;;;;;;5082022;28;20538;-73
2024/04/04 04:11:05;;;;;;;5.50;4.90;;;10.40;1.00;;;;;;5100353;27;20477;-72
2024/04/04 04:13:31;;;;;;;6.17;5.57;;;10.30;1.00;;;;;;5105355;27;20458;-73
2024/04/04 04:16:01;;;;;;;6.00;5.50;;;10.20;1.00;;;;;;5106560;27;20461;-72
2024/04/04 04:18:27;;;;;;;5.37;4.83;;;10.20;1.00;;;;;;5092492;27;20450;-73
2024/04/04 04:23:40;;;;;;;5.53;5.03;;;10.20;1.00;;;;;;5107318;27;20457;-73
2024/04/04 04:26:06;;;;;;;5.67;5.10;;;10.20;1.00;;;;;;5103715;27;20463;-72
2024/04/04 04:28:33;;;;;;;4.90;4.50;;;10.20;1.00;;;;;;5091693;27;20483;-72
2024/04/04 04:31:03;;;;;;;5.07;4.67;;;10.30;1.00;;;;;;5085584;28;20568;-73
2024/04/04 04:33:30;;;;;;;5.27;4.80;;;10.30;1.00;;;;;;5082297;27;20982;-74
2024/04/04 04:35:57;;;;;;;13.93;6.30;;;10.30;1.00;;;;;;5085471;28;20418;-73
2024/04/04 04:38:22;;;;;;;6.00;5.17;;;10.40;1.00;;;;;;5083302;27;20438;-73
2024/04/04 04:40:51;;;;;;;5.07;4.67;;;10.50;1.00;;;;;;5082135;28;20504;-73
2024/04/04 04:43:17;;;;;;;6.10;5.60;;;10.50;1.00;;;;;;5081047;27;20558;-74
2024/04/04 04:45:44;;;;;;;4.87;4.47;;;10.50;1.00;;;;;;5095239;27;20450;-74
2024/04/04 04:48:11;;;;;;;6.00;4.87;;;10.50;1.00;;;;;;5101493;27;20901;-74
2024/04/04 04:50:38;;;;;;;5.50;5.00;;;10.60;1.00;;;;;;5105115;27;21100;-72
2024/04/04 04:53:04;;;;;;;5.00;4.30;;;10.60;1.00;;;;;;5102796;27;20465;-72
2024/04/04 04:55:31;;;;;;;7.43;4.93;;;10.60;1.00;;;;;;5099541;27;20908;-73
2024/04/04 04:57:57;;;;;;;4.60;4.20;;;10.60;1.00;;;;;;5100137;27;21271;-73
2024/04/04 05:00:24;;;;;;;4.93;4.07;;;10.60;1.00;;;;;;5105112;27;20966;-72
2024/04/04 05:02:51;;;;;;;6.07;4.47;;;10.60;1.00;;;;;;5102421;27;20503;-73
2024/04/04 05:05:20;;;;;;;4.53;4.13;;;10.70;1.00;;;;;;5105032;27;20640;-71
2024/04/04 05:07:46;;;;;;;4.40;4.00;;;10.70;1.00;;;;;;5103471;27;20458;-72
2024/04/04 05:10:13;;;;;;;4.00;3.70;;;10.70;1.00;;;;;;5110116;27;20952;-71
2024/04/04 05:12:39;;;;;;;4.60;4.10;;;10.70;1.00;;;;;;5104416;27;20469;-72
2024/04/04 05:15:07;;;;;;;4.43;4.03;;;10.60;1.00;;;;;;5105775;27;20953;-75
2024/04/04 05:17:33;;;;;;;4.00;3.60;;;10.60;1.00;;;;;;5100335;27;20530;-73
2024/04/04 05:20:00;;;;;;;4.13;3.83;;;10.60;1.00;;;;;;5084616;28;20467;-73
2024/04/04 05:22:28;;;;;;;5.40;4.90;;;10.60;1.00;;;;;;5085130;27;21405;-72
2024/04/04 05:24:56;;;;;;;4.43;4.03;;;10.60;1.00;;;;;;5083064;27;21327;-73
2024/04/04 05:27:22;;;;;;;4.20;3.60;;;10.70;1.00;;;;;;5088058;28;20440;-73
2024/04/04 05:29:52;;;;;;;4.80;4.40;;;10.70;1.00;;;;;;5081242;27;20483;-72
2024/04/04 05:32:18;;;;;;;4.60;4.10;;;10.80;1.00;;;;;;5087428;28;20554;-74
2024/04/04 05:34:47;;;;;;;5.13;3.93;;;10.80;1.00;;;;;;5087155;28;21072;-73
2024/04/04 05:37:13;;;;;;;4.40;4.00;;;10.90;1.00;;;;;;5095512;27;21345;-71
2024/04/04 05:39:41;;;;;;;4.40;4.03;;;10.90;1.00;;;;;;5084380;27;20474;-72
2024/04/04 05:42:07;;;;;;;5.07;4.57;;;11.00;1.00;;;;;;5080190;27;20958;-72
2024/04/04 05:44:34;;;;;;;5.63;4.17;;;11.00;1.00;;;;;;5083835;27;20465;-71
2024/04/04 05:47:00;;;;;;;5.20;4.17;;;11.10;1.00;;;;;;5084663;27;20546;-72
2024/04/04 05:49:27;;;;;;;4.47;4.13;;;11.10;1.00;;;;;;5099065;27;20542;-71
2024/04/04 05:51:53;;;;;;;5.20;4.60;;;11.20;1.00;;;;;;5099904;27;20545;-72
2024/04/04 05:54:20;;;;;;;5.07;4.20;;;11.30;1.00;;;;;;5100555;27;20476;-73
2024/04/04 05:56:48;;;;;;;5.87;4.73;;;11.30;1.00;;;;;;5103023;27;20466;-73
2024/04/04 05:59:15;;;;;;;3.70;3.40;;;11.40;1.00;;;;;;5100867;27;20470;-72
2024/04/04 06:01:44;;;;;;;4.50;4.10;;;11.50;1.00;;;;;;5101486;27;20512;-72
2024/04/04 06:04:10;;;;;;;6.00;4.60;;;11.50;1.00;;;;;;5104263;27;20542;-74
2024/04/04 06:06:37;;;;;;;5.27;4.27;;;11.50;1.00;;;;;;5092201;27;20471;-71
2024/04/04 06:09:05;;;;;;;5.03;4.60;;;11.50;1.00;;;;;;5080181;27;20542;-72
2024/04/04 06:11:31;;;;;;;4.63;3.80;;;11.50;1.00;;;;;;5087664;27;20488;-74
2024/04/04 06:13:59;;;;;;;4.47;4.03;;;11.70;1.00;;;;;;5075839;28;20903;-73
2024/04/04 06:16:25;;;;;;;4.27;3.93;;;11.80;1.00;;;;;;5085652;28;20579;-72
2024/04/04 06:18:52;;;;;;;4.47;4.03;;;12.00;1.00;;;;;;5091071;27;20482;-72
2024/04/04 06:21:18;;;;;;;5.97;3.70;;;12.10;1.00;;;;;;5086426;27;20545;-72
2024/04/04 06:23:45;;;;;;;4.13;3.40;;;12.20;1.00;;;;;;5096534;27;20511;-72
2024/04/04 06:26:11;;;;;;;4.47;3.17;;;12.20;1.00;;;;;;5101556;27;21058;-71
2024/04/04 06:28:38;;;;;;;3.40;3.10;;;12.10;1.00;;;;;;5096731;27;20822;-72
2024/04/04 06:31:05;;;;;;;7.80;3.40;;;12.00;1.00;;;;;;5083326;27;20501;-71
2024/04/04 06:33:34;;;;;;;5.13;3.40;;;12.00;1.00;;;;;;5107500;27;20518;-73
2024/04/04 06:36:00;;;;;;;3.40;3.10;;;12.00;1.00;;;;;;5082465;27;20470;-72
2024/04/04 06:38:27;;;;;;;4.53;3.00;;;12.00;1.00;;;;;;5080301;28;20490;-71
2024/04/04 06:40:53;;;;;;;6.83;3.60;;;12.10;1.00;;;;;;5098682;27;20545;-74
2024/04/04 06:43:20;;;;;;;5.77;4.50;;;12.10;1.00;;;;;;5104900;27;20467;-73
2024/04/04 06:45:46;;;;;;;5.07;3.00;;;12.10;1.00;;;;;;5105975;27;20530;-72
2024/04/04 06:48:14;;;;;;;4.23;3.33;;;12.20;1.00;;;;;;5084257;28;20468;-73
2024/04/04 06:50:40;;;;;;;3.77;3.40;;;12.30;1.00;;;;;;5089970;27;20474;-73
2024/04/04 06:53:07;;;;;;;5.67;2.80;;;12.30;1.00;;;;;;5105309;27;20974;-71
2024/04/04 06:55:33;;;;;;;6.10;3.60;;;12.30;1.00;;;;;;5099384;27;21290;-71
2024/04/04 06:58:00;;;;;;;4.37;3.00;;;12.30;1.00;;;;;;5102447;27;20487;-74
2024/04/04 07:00:26;;;;;;;3.70;3.07;;;12.40;1.00;;;;;;5104168;27;21025;-74
2024/04/04 07:02:53;;;;;;;3.70;3.20;;;12.50;1.00;;;;;;5104751;27;20552;-72
2024/04/04 07:05:23;;;;;;;8.60;3.43;;;12.60;1.00;;;;;;5109143;27;20458;-75
2024/04/04 07:07:49;;;;;;;2.90;2.50;;;12.70;1.00;;;;;;5108513;27;20550;-77
2024/04/04 07:10:16;;;;;;;5.70;3.43;;;12.80;1.00;;;;;;5108659;27;20451;-77
2024/04/04 07:12:41;;;;;;;3.73;3.40;;;12.80;1.00;;;;;;5093946;27;21012;-77
2024/04/04 07:15:09;;;;;;;3.20;2.70;;;12.80;1.00;;;;;;5088237;27;20479;-77
2024/04/04 07:17:35;;;;;;;6.00;2.87;;;12.90;1.00;;;;;;5086949;28;20525;-76
2024/04/04 07:20:03;;;;;;;5.40;3.50;;;13.00;1.00;;;;;;5077439;27;20478;-77
2024/04/04 07:22:30;;;;;;;2.80;2.60;;;13.10;1.00;;;;;;5099666;27;20471;-77
2024/04/04 07:24:57;;;;;;;5.83;3.43;;;13.10;1.00;;;;;;5084770;27;20573;-77
2024/04/04 07:27:23;;;;;;;2.80;2.60;;;13.20;1.00;;;;;;5099996;27;20912;-79
2024/04/04 07:29:51;;;;;;;3.20;2.67;;;13.30;1.00;;;;;;5086931;28;20461;-77
2024/04/04 07:32:17;;;;;;;7.47;3.90;;;13.40;1.00;;;;;;5086881;28;20460;-77
2024/04/04 07:34:44;;;;;;;5.03;2.73;;;13.60;1.00;;;;;;5086715;28;20456;-76
2024/04/04 07:37:10;;;;;;;2.63;2.43;;;13.90;1.00;;;;;;5088341;28;21037;-76
2024/04/04 07:39:38;;;;;;;6.03;2.63;;;14.00;1.00;;;;;;5102058;27;20522;-76
2024/04/04 07:42:04;;;;;;;3.90;3.00;;;13.90;1.00;;;;;;5110487;27;20436;-78
2024/04/04 07:44:31;;;;;;;2.67;2.47;;;14.00;1.00;;;;;;5105877;27;20456;-76
2024/04/04 07:46:57;;;;;;;3.00;2.30;;;14.00;1.00;;;;;;5106960;27;20913;-80
2024/04/04 07:49:25;;;;;;;5.13;2.90;;;14.10;1.00;;;;;;5106691;27;20543;-76
2024/04/04 07:51:51;;;;;;;11.90;5.47;;;14.20;1.00;;;;;;5108786;27;20461;-77
2024/04/04 07:54:19;;;;;;;4.00;3.00;;;14.50;1.00;;;;;;5109137;27;20536;-77
2024/04/04 07:56:46;;;;;;;6.10;3.50;;;14.60;1.00;;;;;;5107729;27;21082;-77
2024/04/04 07:59:14;;;;;;;4.40;2.97;;;14.70;1.00;;;;;;5084495;28;21384;-80
2024/04/04 08:01:40;;;;;;;4.57;2.20;;;14.80;1.00;;;;;;5084395;27;20485;-75
2024/04/04 08:04:08;;;;;;;3.73;2.50;;;14.70;1.00;;;;;;5087090;27;20500;-79
2024/04/04 08:06:34;;;;;;;4.63;2.63;;;14.70;1.00;;;;;;5080928;28;20473;-74
2024/04/04 08:09:01;;;;;;;4.53;4.13;;;14.70;1.00;;;;;;5081546;28;20462;-73
2024/04/04 08:11:27;;;;;;;6.30;2.63;;;14.70;1.00;;;;;;5093015;27;20515;-73
2024/04/04 08:13:58;;;;;;;2.73;2.07;;;14.80;1.00;;;;;;5081459;28;20874;-72
2024/04/04 08:16:24;;;;;;;3.80;2.30;;;14.80;1.00;;;;;;5084686;28;20480;-75
2024/04/04 08:18:51;;;;;;;3.50;2.00;;;14.90;1.00;;;;;;5083776;27;20476;-72
2024/04/04 08:21:18;;;;;;;9.70;2.80;;;15.00;1.00;;;;;;5085823;28;20330;-74
2024/04/04 08:23:45;;;;;;;2.80;2.20;;;15.00;1.00;;;;;;5085525;27;20464;-74
2024/04/04 08:26:11;;;;;;;3.20;2.00;;;15.10;1.00;;;;;;5084144;27;20466;-74
2024/04/04 08:28:38;;;;;;;2.63;1.87;;;15.10;1.00;;;;;;5087102;28;20479;-74
2024/04/04 08:31:07;;;;;;;5.03;2.07;;;15.10;1.00;;;;;;5096547;27;20535;-71
2024/04/04 08:33:34;;;;;;;5.20;1.97;;;15.30;1.00;;;;;;5084791;28;20466;-72
2024/04/04 08:36:00;;;;;;;3.37;1.90;;;15.50;1.00;;;;;;5083125;28;20535;-71
2024/04/04 08:38:27;;;;;;;7.13;4.40;;;15.50;1.00;;;;;;5081790;28;20480;-71
2024/04/04 08:40:56;;;;;;;2.50;1.80;;;15.60;1.00;;;;;;5081790;27;20457;-71
2024/04/04 08:43:23;;;;;;;11.07;3.40;;;15.80;1.00;;;;;;5081921;27;20585;-72
2024/04/04 08:45:50;;;;;;;1.90;1.70;;;16.00;1.00;;;;;;5078475;27;21791;-73
2024/04/04 08:48:20;;;;;;;1.97;1.27;;;16.20;1.00;;;;;;5080921;27;20555;-71
2024/04/04 08:50:47;;;;;;;8.53;1.60;;;16.60;1.00;;;;;;5080165;27;20463;-71
2024/04/04 08:53:16;;;;;;;3.53;1.67;;;16.80;1.00;;;;;;5083603;27;21039;-72
2024/04/04 08:55:43;;;;;;;1.60;1.50;;;17.00;1.00;;;;;;5083083;27;20506;-72
2024/04/04 08:58:13;;;;;;;8.10;2.80;;;17.30;1.00;;;;;;5078451;28;20946;-71
2024/04/04 09:00:40;;;;;;;2.67;1.30;;;17.40;1.00;;;;;;5081011;27;20479;-71
2024/04/04 09:03:08;;;;;;;2.00;1.33;;;17.30;1.00;;;;;;5079425;28;20444;-72
2024/04/04 09:05:35;;;;;;;1.63;1.40;;;17.10;1.00;;;;;;5082201;27;20477;-71
2024/04/04 09:08:04;;;;;;;3.17;2.10;;;16.70;1.00;;;;;;5078186;27;22657;-72
2024/04/04 09:10:30;;;;;;;4.53;1.70;;;16.60;1.00;;;;;;5086024;27;20558;-71
2024/04/04 09:13:01;;;;;;;3.23;1.77;;;16.70;1.00;;;;;;5082603;27;20865;-72
2024/04/04 09:15:27;;;;;;;1.90;1.70;;;16.80;1.00;;;;;;5090241;27;20498;-76
2024/04/04 09:18:01;;;;;;;4.57;2.00;;;17.00;1.00;;;;;;5086462;27;20871;-78
2024/04/04 09:20:29;;;;;;;3.27;2.20;;;17.40;1.00;;;;;;5081490;28;20491;-72
2024/04/04 09:23:01;;;;;;;4.00;1.70;;;17.90;1.00;;;;;;5100775;27;20579;-72
2024/04/04 09:25:29;;;;;;;2.70;1.27;;;18.50;1.00;;;;;;5104361;27;20466;-72
2024/04/04 09:27:56;;;;;;;3.13;1.50;;;18.40;1.00;;;;;;5104746;27;20462;-71
2024/04/04 09:30:24;;;;;;;2.10;1.33;;;18.20;1.00;;;;;;5101293;27;20454;-72
2024/04/04 09:32:52;;;;;;;3.60;1.57;;;18.40;1.00;;;;;;5102916;27;20836;-69
2024/04/04 09:35:19;;;;;;;2.03;1.40;;;18.70;1.00;;;;;;5102484;27;20551;-70
2024/04/04 09:37:47;;;;;;;1.43;1.20;;;19.30;1.00;;;;;;5105407;27;21276;-75
2024/04/04 09:40:15;;;;;;;3.47;1.53;;;20.40;1.00;;;;;;5103909;27;20496;-71
2024/04/04 09:42:44;;;;;;;2.17;1.30;;;21.70;1.00;;;;;;5107577;27;20516;-70
2024/04/04 09:45:11;;;;;;;1.73;1.10;;;22.20;1.00;;;;;;5106503;27;20467;-71
2024/04/04 09:47:44;;;;;;;2.27;1.23;;;21.80;1.00;;;;;;5111255;27;20579;-72
2024/04/04 09:50:12;;;;;;;1.30;1.00;;;21.50;1.00;;;;;;5082378;28;21035;-71
2024/04/04 09:52:39;;;;;;;2.10;0.90;;;21.00;1.00;;;;;;5085556;27;20491;-71
2024/04/04 09:55:07;;;;;;;2.50;1.10;;;20.30;1.00;;;;;;5097241;27;20473;-74
2024/04/04 09:57:36;;;;;;;2.73;1.30;;;19.80;1.00;;;;;;5093678;27;20508;-72
2024/04/04 10:00:14;;;;;;;1.60;1.00;;;19.30;1.00;;;;;;5077092;27;20465;-70
2024/04/04 10:02:45;;;;;;;3.93;1.10;;;18.80;1.00;;;;;;5101633;27;20450;-74
2024/04/04 10:05:16;;;;;;;3.20;1.27;;;18.00;1.00;;;;;;5082311;28;20666;-75
2024/04/04 10:07:44;;;;;;;2.53;1.30;;;17.70;1.00;;;;;;5091411;27;20472;-71
2024/04/04 10:10:14;;;;;;;1.93;1.10;;;17.60;1.00;;;;;;5083213;27;20648;-70
2024/04/04 10:12:44;;;;;;;2.80;1.10;;;17.40;1.00;;;;;;5081566;28;20515;-70
2024/04/04 10:15:15;;;;;;;1.60;1.03;;;17.30;1.00;;;;;;5078603;28;20463;-75
2024/04/04 10:17:45;;;;;;;1.73;1.00;;;17.10;1.00;;;;;;5090664;27;21061;-72
2024/04/04 10:20:12;;;;;;;1.30;0.90;;;17.10;1.00;;;;;;5084615;27;21296;-74
2024/04/04 10:22:39;;;;;;;2.50;1.40;;;16.90;1.00;;;;;;5101767;27;20954;-72
2024/04/04 10:25:06;;;;;;;2.43;1.03;;;16.80;1.00;;;;;;5105562;27;20517;-71
2024/04/04 10:27:32;;;;;;;2.90;1.13;;;16.80;1.00;;;;;;5102062;27;20514;-70
2024/04/04 10:30:00;;;;;;;4.60;1.20;;;16.80;1.00;;;;;;5083772;27;20559;-71
2024/04/04 10:32:30;;;;;;;1.73;0.90;;;16.90;1.00;;;;;;5081113;27;20420;-70
2024/04/04 10:35:01;;;;;;;1.77;1.47;;;17.00;1.00;;;;;;5082654;27;20591;-72
2024/04/04 10:37:28;;;;;;;2.43;0.80;;;17.10;1.00;;;;;;5095710;27;20458;-71
2024/04/04 10:39:54;;;;;;;3.07;1.40;;;17.40;1.00;;;;;;5076573;27;20559;-71
2024/04/04 10:42:22;;;;;;;1.73;1.00;;;17.40;1.00;;;;;;5091938;27;20981;-72
2024/04/04 10:44:52;;;;;;;1.80;1.10;;;17.50;1.00;;;;;;5082339;28;20466;-73
2024/04/04 10:47:21;;;;;;;2.03;1.00;;;17.50;1.00;;;;;;5086263;27;20516;-71
2024/04/04 10:49:47;;;;;;;2.00;1.17;;;17.40;1.00;;;;;;5080487;28;20934;-70
2024/04/04 10:52:15;;;;;;;2.40;1.40;;;16.80;1.00;;;;;;5082211;27;20549;-73
2024/04/04 10:54:42;;;;;;;4.90;1.20;;;16.60;1.00;;;;;;5084094;28;20563;-73
2024/04/04 10:57:09;;;;;;;3.87;1.33;;;16.30;1.00;;;;;;5099159;27;20464;-71
2024/04/04 10:59:35;;;;;;;2.30;1.43;;;15.80;1.00;;;;;;5087018;27;20517;-70
2024/04/04 11:02:07;;;;;;;5.33;1.60;;;15.20;1.00;;;;;;5079928;27;20946;-73
2024/04/04 11:04:36;;;;;;;2.30;1.17;;;14.50;1.00;;;;;;5088847;27;20479;-71
2024/04/04 11:07:05;;;;;;;3.53;1.50;;;14.20;1.00;;;;;;5079826;27;20551;-71
2024/04/04 11:09:31;;;;;;;2.00;1.80;;;14.00;1.00;;;;;;5086296;28;20471;-72
2024/04/04 11:12:00;;;;;;;7.20;5.17;;;13.80;1.00;;;;;;5082207;27;20475;-72
2024/04/04 11:14:26;;;;;;;1.80;1.63;;;13.70;1.00;;;;;;5085702;27;20503;-72
2024/04/04 11:16:54;;;;;;;3.77;1.53;;;13.60;1.00;;;;;;5090130;27;20485;-71
2024/04/04 11:19:23;;;;;;;4.70;2.03;;;13.50;1.00;;;;;;5083164;28;20548;-73
2024/04/04 11:21:51;;;;;;;2.63;1.30;;;13.40;1.00;;;;;;5083674;28;20461;-72
2024/04/04 11:24:18;;;;;;;2.47;1.50;;;13.40;1.00;;;;;;5081726;27;20488;-73
2024/04/04 11:26:45;;;;;;;2.83;1.40;;;13.40;1.00;;;;;;5082300;28;20456;-73
2024/04/04 11:29:11;;;;;;;2.87;1.30;;;13.40;1.00;;;;;;5084700;27;21367;-73
2024/04/04 11:31:38;;;;;;;3.97;1.80;;;13.40;1.00;;;;;;5089916;27;20998;-74
2024/04/04 11:34:05;;;;;;;2.03;1.80;;;13.30;1.00;;;;;;5079651;28;20467;-74
2024/04/04 11:36:33;;;;;;;3.77;1.73;;;13.10;1.00;;;;;;5079322;28;21236;-71
2024/04/04 11:39:00;;;;;;;2.73;1.93;;;12.90;1.00;;;;;;5086104;27;20970;-72
2024/04/04 11:41:28;;;;;;;4.07;2.13;;;12.80;1.00;;;;;;5082491;28;21007;-71
2024/04/04 11:43:54;;;;;;;3.80;1.97;;;12.70;1.00;;;;;;5081639;27;20475;-72
2024/04/04 11:46:21;;;;;;;4.70;2.40;;;12.60;1.00;;;;;;5091179;27;20910;-75
2024/04/04 11:48:47;;;;;;;3.80;2.37;;;12.60;1.00;;;;;;5104975;27;20479;-74
2024/04/04 11:51:14;;;;;;;3.07;2.03;;;12.60;1.00;;;;;;5107580;27;20944;-74
2024/04/04 11:53:40;;;;;;;3.50;2.20;;;12.70;1.00;;;;;;5107864;27;20499;-75
2024/04/04 11:56:08;;;;;;;4.70;2.17;;;12.80;1.00;;;;;;5107144;27;20563;-75
2024/04/04 11:58:38;;;;;;;5.33;2.40;;;12.90;1.00;;;;;;5104266;27;20989;-77
2024/04/04 12:01:05;;;;;;;4.70;2.30;;;13.20;1.00;;;;;;5107921;27;20511;-76
2024/04/04 12:03:32;;;;;;;3.17;2.37;;;13.30;1.00;;;;;;5109420;27;21175;-77
2024/04/04 12:06:02;;;;;;;2.90;2.03;;;13.40;1.00;;;;;;5105468;27;21026;-77
2024/04/04 12:08:28;;;;;;;3.83;2.50;;;13.50;1.00;;;;;;5108104;27;20461;-76
2024/04/04 12:10:58;;;;;;;4.13;1.90;;;13.70;1.00;;;;;;5097836;27;21206;-75
2024/04/04 12:13:25;;;;;;;3.50;2.60;;;13.60;1.00;;;;;;5089782;28;20550;-76
2024/04/04 12:15:52;;;;;;;4.10;2.50;;;13.50;1.00;;;;;;5083998;28;20449;-74
2024/04/04 12:21:08;;;;;;;5.23;2.63;;;13.30;1.00;;;;;;5097004;27;20413;-77
2024/04/04 12:23:35;;;;;;;4.30;2.27;;;13.30;1.00;;;;;;5091595;27;21022;-75
2024/04/04 12:26:03;;;;;;;2.10;1.83;;;13.20;1.00;;;;;;5088590;27;20503;-76
2024/04/04 12:28:32;;;;;;;2.87;2.57;;;13.20;1.00;;;;;;5092411;28;20558;-76
2024/04/04 12:30:58;;;;;;;3.43;2.10;;;13.10;1.00;;;;;;5088347;28;20959;-77
2024/04/04 12:33:25;;;;;;;2.80;2.60;;;13.00;1.00;;;;;;5089730;27;20514;-78
2024/04/04 12:35:53;;;;;;;4.90;2.27;;;13.00;1.00;;;;;;5082986;27;20506;-74
2024/04/04 12:38:19;;;;;;;2.70;2.50;;;13.00;1.00;;;;;;5084236;27;20478;-75
2024/04/04 12:40:46;;;;;;;2.53;1.80;;;13.00;1.00;;;;;;5097619;27;20518;-75
2024/04/04 12:43:13;;;;;;;2.70;2.20;;;13.00;1.00;;;;;;5085974;28;20459;-71
2024/04/04 12:45:41;;;;;;;3.03;2.60;;;13.10;1.00;;;;;;5098290;27;20962;-72
2024/04/04 12:48:07;;;;;;;4.80;3.50;;;13.00;1.00;;;;;;5096499;27;21070;-72
2024/04/04 12:50:34;;;;;;;3.00;2.70;;;12.90;1.00;;;;;;5084021;27;20456;-72
2024/04/04 12:53:00;;;;;;;8.57;3.00;;;12.90;1.00;;;;;;5085648;28;20489;-72
2024/04/04 12:55:27;;;;;;;3.40;2.80;;;12.90;1.00;;;;;;5094962;27;20549;-74
2024/04/04 12:57:53;;;;;;;8.10;3.90;;;12.90;1.00;;;;;;5100576;27;20494;-72
2024/04/04 13:00:20;;;;;;;11.03;3.90;;;12.80;1.00;;;;;;5103261;27;20478;-71
2024/04/04 13:02:48;;;;;;;6.00;4.10;;;12.70;1.00;;;;;;5110301;27;20466;-72